Pegswood, United Kingdom
Current Conditions -  °F | °C
As of 9:20 PM on Monday 22 Dec 2014 (Local Time) from EGNT Reporting Station
Scattered Clouds Scattered Clouds  
Wind Chill: 50°   Ceiling: Unl
Heat Index: 50°   Visibility: 5mi
Dew Point: 46°   Wind: 9mph
Humidity: 87%   Direction: 260°W
Pressure: 29.68"   Gusts: 22mph
Location:  55.18°N, 1.65°W
Report Text: EGNT 222120Z 26008G19KT 230V300 8000 SCT025 10/08 Q1005
Loading
Personal Weather Stations






























Interactive Weather Map New forecast layout! Learn more

10-Day Weather Forecast

Advertisements
Track Severe Weather on mobile